sensor_id;sensor_type;location;lat;lon;timestamp;temperature;humidity
3986;DHT22;2007;48.750;9.278;2022-12-19T00:00:42;11.30;48.00
3986;DHT22;2007;48.750;9.278;2022-12-19T00:03:10;11.30;48.00
3986;DHT22;2007;48.750;9.278;2022-12-19T00:05:38;11.20;47.90
3986;DHT22;2007;48.750;9.278;2022-12-19T00:08:10;11.30;48.00
3986;DHT22;2007;48.750;9.278;2022-12-19T00:10:43;11.30;48.00
3986;DHT22;2007;48.750;9.278;2022-12-19T00:13:15;11.20;47.90
3986;DHT22;2007;48.750;9.278;2022-12-19T00:15:43;11.30;48.00
3986;DHT22;2007;48.750;9.278;2022-12-19T00:18:11;11.30;48.00
3986;DHT22;2007;48.750;9.278;2022-12-19T00:20:39;11.30;48.00
3986;DHT22;2007;48.750;9.278;2022-12-19T00:23:06;11.30;48.00
3986;DHT22;2007;48.750;9.278;2022-12-19T00:25:34;11.30;48.00
3986;DHT22;2007;48.750;9.278;2022-12-19T00:28:05;11.30;48.00
3986;DHT22;2007;48.750;9.278;2022-12-19T00:30:34;11.30;48.00
3986;DHT22;2007;48.750;9.278;2022-12-19T00:33:03;11.30;48.00
3986;DHT22;2007;48.750;9.278;2022-12-19T00:35:30;11.30;48.00
3986;DHT22;2007;48.750;9.278;2022-12-19T00:37:58;11.30;48.00
3986;DHT22;2007;48.750;9.278;2022-12-19T00:40:26;11.30;48.00
3986;DHT22;2007;48.750;9.278;2022-12-19T00:42:54;11.30;48.00
3986;DHT22;2007;48.750;9.278;2022-12-19T00:45:23;11.30;48.00
3986;DHT22;2007;48.750;9.278;2022-12-19T00:47:53;11.30;48.00
3986;DHT22;2007;48.750;9.278;2022-12-19T00:50:20;11.30;48.00
3986;DHT22;2007;48.750;9.278;2022-12-19T00:52:48;11.30;48.00
3986;DHT22;2007;48.750;9.278;2022-12-19T00:55:16;11.30;48.00
3986;DHT22;2007;48.750;9.278;2022-12-19T00:57:45;11.30;48.00
3986;DHT22;2007;48.750;9.278;2022-12-19T01:00:14;11.30;48.00
3986;DHT22;2007;48.750;9.278;2022-12-19T01:02:42;11.30;47.90
3986;DHT22;2007;48.750;9.278;2022-12-19T01:05:12;11.30;47.90
3986;DHT22;2007;48.750;9.278;2022-12-19T01:07:40;11.30;47.90
3986;DHT22;2007;48.750;9.278;2022-12-19T01:10:09;11.30;48.00
3986;DHT22;2007;48.750;9.278;2022-12-19T01:12:36;11.30;47.90
3986;DHT22;2007;48.750;9.278;2022-12-19T01:15:14;11.30;47.90
3986;DHT22;2007;48.750;9.278;2022-12-19T01:17:42;11.30;47.90
3986;DHT22;2007;48.750;9.278;2022-12-19T01:20:14;11.40;48.00
3986;DHT22;2007;48.750;9.278;2022-12-19T01:22:44;11.40;48.00
3986;DHT22;2007;48.750;9.278;2022-12-19T01:25:13;11.40;48.00
3986;DHT22;2007;48.750;9.278;2022-12-19T01:27:41;11.40;48.00
3986;DHT22;2007;48.750;9.278;2022-12-19T01:30:10;11.40;48.10
3986;DHT22;2007;48.750;9.278;2022-12-19T01:32:39;11.30;47.90
3986;DHT22;2007;48.750;9.278;2022-12-19T01:35:08;11.30;48.00
3986;DHT22;2007;48.750;9.278;2022-12-19T01:37:49;11.30;47.90
3986;DHT22;2007;48.750;9.278;2022-12-19T01:40:17;11.40;48.00
3986;DHT22;2007;48.750;9.278;2022-12-19T01:42:46;11.40;48.00
3986;DHT22;2007;48.750;9.278;2022-12-19T01:45:25;11.40;48.00
3986;DHT22;2007;48.750;9.278;2022-12-19T01:48:06;11.40;48.00
3986;DHT22;2007;48.750;9.278;2022-12-19T01:50:41;11.40;48.00
3986;DHT22;2007;48.750;9.278;2022-12-19T01:53:32;11.40;48.00
3986;DHT22;2007;48.750;9.278;2022-12-19T01:56:04;11.40;48.00
3986;DHT22;2007;48.750;9.278;2022-12-19T01:58:33;11.40;48.00
3986;DHT22;2007;48.750;9.278;2022-12-19T02:01:01;11.40;48.00
3986;DHT22;2007;48.750;9.278;2022-12-19T02:03:31;11.40;48.00
3986;DHT22;2007;48.750;9.278;2022-12-19T02:06:01;11.40;48.00
3986;DHT22;2007;48.750;9.278;2022-12-19T02:08:31;11.40;48.00
3986;DHT22;2007;48.750;9.278;2022-12-19T02:11:00;11.40;48.10
3986;DHT22;2007;48.750;9.278;2022-12-19T02:13:28;11.40;48.00
3986;DHT22;2007;48.750;9.278;2022-12-19T02:16:00;11.40;48.00
3986;DHT22;2007;48.750;9.278;2022-12-19T02:18:37;11.40;48.10
3986;DHT22;2007;48.750;9.278;2022-12-19T02:21:27;11.40;48.10
3986;DHT22;2007;48.750;9.278;2022-12-19T02:27:29;11.40;48.10
3986;DHT22;2007;48.750;9.278;2022-12-19T02:30:08;11.40;48.10
3986;DHT22;2007;48.750;9.278;2022-12-19T02:32:45;11.40;48.10
3986;DHT22;2007;48.750;9.278;2022-12-19T02:35:20;11.40;48.10
3986;DHT22;2007;48.750;9.278;2022-12-19T02:37:56;11.40;48.10
3986;DHT22;2007;48.750;9.278;2022-12-19T02:40:28;11.40;48.10
3986;DHT22;2007;48.750;9.278;2022-12-19T02:42:59;11.40;48.10
3986;DHT22;2007;48.750;9.278;2022-12-19T02:45:31;11.40;48.10
3986;DHT22;2007;48.750;9.278;2022-12-19T02:48:04;11.40;48.10
3986;DHT22;2007;48.750;9.278;2022-12-19T02:50:36;11.40;48.10
3986;DHT22;2007;48.750;9.278;2022-12-19T02:53:05;11.40;48.10
3986;DHT22;2007;48.750;9.278;2022-12-19T02:55:43;11.40;48.10
3986;DHT22;2007;48.750;9.278;2022-12-19T02:58:31;11.40;48.10
3986;DHT22;2007;48.750;9.278;2022-12-19T03:01:11;11.40;48.10
3986;DHT22;2007;48.750;9.278;2022-12-19T03:03:50;11.40;48.10
3986;DHT22;2007;48.750;9.278;2022-12-19T03:06:24;11.40;48.20
3986;DHT22;2007;48.750;9.278;2022-12-19T03:08:58;11.50;48.20
3986;DHT22;2007;48.750;9.278;2022-12-19T03:11:30;11.40;48.10
3986;DHT22;2007;48.750;9.278;2022-12-19T03:14:02;11.40;48.10
3986;DHT22;2007;48.750;9.278;2022-12-19T03:16:33;11.50;48.20
3986;DHT22;2007;48.750;9.278;2022-12-19T03:19:04;11.50;48.20
3986;DHT22;2007;48.750;9.278;2022-12-19T03:21:37;11.40;48.20
3986;DHT22;2007;48.750;9.278;2022-12-19T03:24:07;11.40;48.10
3986;DHT22;2007;48.750;9.278;2022-12-19T03:26:37;11.50;48.20
3986;DHT22;2007;48.750;9.278;2022-12-19T03:29:11;11.50;48.20
3986;DHT22;2007;48.750;9.278;2022-12-19T03:31:42;11.50;48.20
3986;DHT22;2007;48.750;9.278;2022-12-19T03:34:17;11.50;48.20
3986;DHT22;2007;48.750;9.278;2022-12-19T03:36:48;11.50;48.20
3986;DHT22;2007;48.750;9.278;2022-12-19T03:39:19;11.50;48.30
3986;DHT22;2007;48.750;9.278;2022-12-19T03:41:48;11.50;48.20
3986;DHT22;2007;48.750;9.278;2022-12-19T03:44:38;11.50;48.20
3986;DHT22;2007;48.750;9.278;2022-12-19T03:47:11;11.50;48.20
3986;DHT22;2007;48.750;9.278;2022-12-19T03:49:43;11.50;48.30
3986;DHT22;2007;48.750;9.278;2022-12-19T03:52:21;11.50;48.20
3986;DHT22;2007;48.750;9.278;2022-12-19T03:54:56;11.50;48.30
3986;DHT22;2007;48.750;9.278;2022-12-19T03:57:29;11.50;48.20
3986;DHT22;2007;48.750;9.278;2022-12-19T04:00:03;11.50;48.20
3986;DHT22;2007;48.750;9.278;2022-12-19T04:02:33;11.50;48.30
3986;DHT22;2007;48.750;9.278;2022-12-19T04:05:06;11.50;48.20
3986;DHT22;2007;48.750;9.278;2022-12-19T04:07:36;11.50;48.30
3986;DHT22;2007;48.750;9.278;2022-12-19T04:10:08;11.50;48.30
3986;DHT22;2007;48.750;9.278;2022-12-19T04:12:40;11.50;48.30
3986;DHT22;2007;48.750;9.278;2022-12-19T04:15:09;11.50;48.30
3986;DHT22;2007;48.750;9.278;2022-12-19T04:17:44;11.50;48.30
3986;DHT22;2007;48.750;9.278;2022-12-19T04:20:16;11.50;48.30
3986;DHT22;2007;48.750;9.278;2022-12-19T04:22:51;11.50;48.20
3986;DHT22;2007;48.750;9.278;2022-12-19T04:25:25;11.50;48.30
3986;DHT22;2007;48.750;9.278;2022-12-19T04:27:59;11.50;48.30
3986;DHT22;2007;48.750;9.278;2022-12-19T04:30:29;11.50;48.30
3986;DHT22;2007;48.750;9.278;2022-12-19T04:33:02;11.50;48.30
3986;DHT22;2007;48.750;9.278;2022-12-19T04:35:34;11.50;48.30
3986;DHT22;2007;48.750;9.278;2022-12-19T04:38:03;11.50;48.30
3986;DHT22;2007;48.750;9.278;2022-12-19T04:40:33;11.50;48.20
3986;DHT22;2007;48.750;9.278;2022-12-19T04:43:07;11.50;48.30
3986;DHT22;2007;48.750;9.278;2022-12-19T04:45:35;11.50;48.30
3986;DHT22;2007;48.750;9.278;2022-12-19T04:48:03;11.50;48.30
3986;DHT22;2007;48.750;9.278;2022-12-19T04:50:35;11.50;48.30
3986;DHT22;2007;48.750;9.278;2022-12-19T04:53:03;11.50;48.30
3986;DHT22;2007;48.750;9.278;2022-12-19T04:55:31;11.50;48.30
3986;DHT22;2007;48.750;9.278;2022-12-19T04:57:59;11.60;48.40
3986;DHT22;2007;48.750;9.278;2022-12-19T05:00:30;11.50;48.30
3986;DHT22;2007;48.750;9.278;2022-12-19T05:02:58;11.60;48.40
3986;DHT22;2007;48.750;9.278;2022-12-19T05:05:27;11.50;48.30
3986;DHT22;2007;48.750;9.278;2022-12-19T05:07:56;11.60;48.40
3986;DHT22;2007;48.750;9.278;2022-12-19T05:10:24;11.60;48.40
3986;DHT22;2007;48.750;9.278;2022-12-19T05:12:53;11.60;48.40
3986;DHT22;2007;48.750;9.278;2022-12-19T05:15:21;11.50;48.30
3986;DHT22;2007;48.750;9.278;2022-12-19T05:17:49;11.50;48.40
3986;DHT22;2007;48.750;9.278;2022-12-19T05:20:17;11.60;48.40
3986;DHT22;2007;48.750;9.278;2022-12-19T05:22:45;11.50;48.40
3986;DHT22;2007;48.750;9.278;2022-12-19T05:25:14;11.60;48.40
3986;DHT22;2007;48.750;9.278;2022-12-19T05:27:42;11.50;48.30
3986;DHT22;2007;48.750;9.278;2022-12-19T05:30:11;11.60;48.40
3986;DHT22;2007;48.750;9.278;2022-12-19T05:32:39;11.60;48.40
3986;DHT22;2007;48.750;9.278;2022-12-19T05:35:07;11.60;48.40
3986;DHT22;2007;48.750;9.278;2022-12-19T05:37:34;11.60;48.40
3986;DHT22;2007;48.750;9.278;2022-12-19T05:40:03;11.60;48.40
3986;DHT22;2007;48.750;9.278;2022-12-19T05:42:32;11.60;48.40
3986;DHT22;2007;48.750;9.278;2022-12-19T05:45:00;11.50;48.30
3986;DHT22;2007;48.750;9.278;2022-12-19T05:47:28;11.60;48.50
3986;DHT22;2007;48.750;9.278;2022-12-19T05:49:56;11.60;48.40
3986;DHT22;2007;48.750;9.278;2022-12-19T05:52:24;11.60;48.40
3986;DHT22;2007;48.750;9.278;2022-12-19T05:54:52;11.60;48.40
3986;DHT22;2007;48.750;9.278;2022-12-19T05:57:20;11.60;48.40
3986;DHT22;2007;48.750;9.278;2022-12-19T05:59:49;11.60;48.40
3986;DHT22;2007;48.750;9.278;2022-12-19T06:02:17;11.60;48.40
3986;DHT22;2007;48.750;9.278;2022-12-19T06:04:45;11.60;48.40
3986;DHT22;2007;48.750;9.278;2022-12-19T06:07:13;11.60;48.40
3986;DHT22;2007;48.750;9.278;2022-12-19T06:09:46;11.60;48.40
3986;DHT22;2007;48.750;9.278;2022-12-19T06:12:15;11.60;48.40
3986;DHT22;2007;48.750;9.278;2022-12-19T06:14:42;11.60;48.40
3986;DHT22;2007;48.750;9.278;2022-12-19T06:17:12;11.60;48.40
3986;DHT22;2007;48.750;9.278;2022-12-19T06:19:40;11.60;48.50
3986;DHT22;2007;48.750;9.278;2022-12-19T06:22:08;11.60;48.40
3986;DHT22;2007;48.750;9.278;2022-12-19T06:24:38;11.60;48.40
3986;DHT22;2007;48.750;9.278;2022-12-19T06:27:06;11.60;48.40
3986;DHT22;2007;48.750;9.278;2022-12-19T06:29:33;11.60;48.40
3986;DHT22;2007;48.750;9.278;2022-12-19T06:32:01;11.60;48.40
3986;DHT22;2007;48.750;9.278;2022-12-19T06:34:31;11.60;48.40
3986;DHT22;2007;48.750;9.278;2022-12-19T06:37:18;11.60;48.40
3986;DHT22;2007;48.750;9.278;2022-12-19T06:39:46;11.60;48.40
3986;DHT22;2007;48.750;9.278;2022-12-19T06:42:16;11.60;48.50
3986;DHT22;2007;48.750;9.278;2022-12-19T06:44:50;11.60;48.50
3986;DHT22;2007;48.750;9.278;2022-12-19T06:47:18;11.60;48.40
3986;DHT22;2007;48.750;9.278;2022-12-19T06:49:48;11.60;48.40
3986;DHT22;2007;48.750;9.278;2022-12-19T06:52:16;11.60;48.50
3986;DHT22;2007;48.750;9.278;2022-12-19T06:54:44;11.60;48.40
3986;DHT22;2007;48.750;9.278;2022-12-19T06:57:12;11.60;48.40
3986;DHT22;2007;48.750;9.278;2022-12-19T06:59:40;11.60;48.40
3986;DHT22;2007;48.750;9.278;2022-12-19T07:02:18;11.60;48.40
3986;DHT22;2007;48.750;9.278;2022-12-19T07:04:51;11.60;48.50
3986;DHT22;2007;48.750;9.278;2022-12-19T07:07:22;11.60;48.50
3986;DHT22;2007;48.750;9.278;2022-12-19T07:09:50;11.60;48.50
3986;DHT22;2007;48.750;9.278;2022-12-19T07:12:17;11.60;48.50
3986;DHT22;2007;48.750;9.278;2022-12-19T07:14:45;11.60;48.50
3986;DHT22;2007;48.750;9.278;2022-12-19T07:17:20;11.60;48.50
3986;DHT22;2007;48.750;9.278;2022-12-19T07:19:50;11.60;48.50
3986;DHT22;2007;48.750;9.278;2022-12-19T07:22:20;11.60;48.50
3986;DHT22;2007;48.750;9.278;2022-12-19T07:24:48;11.70;48.60
3986;DHT22;2007;48.750;9.278;2022-12-19T07:27:16;11.60;48.50
3986;DHT22;2007;48.750;9.278;2022-12-19T07:29:44;11.70;48.60
3986;DHT22;2007;48.750;9.278;2022-12-19T07:32:12;11.70;48.60
3986;DHT22;2007;48.750;9.278;2022-12-19T07:34:40;11.60;48.50
3986;DHT22;2007;48.750;9.278;2022-12-19T07:37:09;11.60;48.50
3986;DHT22;2007;48.750;9.278;2022-12-19T07:39:37;11.70;48.70
3986;DHT22;2007;48.750;9.278;2022-12-19T07:42:05;11.60;48.60
3986;DHT22;2007;48.750;9.278;2022-12-19T07:44:33;11.60;48.60
3986;DHT22;2007;48.750;9.278;2022-12-19T07:47:01;11.70;48.60
3986;DHT22;2007;48.750;9.278;2022-12-19T07:49:28;11.60;48.60
3986;DHT22;2007;48.750;9.278;2022-12-19T07:51:56;11.60;48.60
3986;DHT22;2007;48.750;9.278;2022-12-19T07:54:26;11.70;48.60
3986;DHT22;2007;48.750;9.278;2022-12-19T07:56:54;11.60;48.60
3986;DHT22;2007;48.750;9.278;2022-12-19T07:59:22;11.70;48.70
3986;DHT22;2007;48.750;9.278;2022-12-19T08:01:56;11.60;48.60
3986;DHT22;2007;48.750;9.278;2022-12-19T08:04:25;11.60;48.60
3986;DHT22;2007;48.750;9.278;2022-12-19T08:06:53;11.60;48.60
3986;DHT22;2007;48.750;9.278;2022-12-19T08:09:21;11.60;48.60
3986;DHT22;2007;48.750;9.278;2022-12-19T08:11:50;11.60;48.60
3986;DHT22;2007;48.750;9.278;2022-12-19T08:14:18;11.60;48.60
3986;DHT22;2007;48.750;9.278;2022-12-19T08:16:46;11.60;48.60
3986;DHT22;2007;48.750;9.278;2022-12-19T08:19:34;11.70;48.70
3986;DHT22;2007;48.750;9.278;2022-12-19T08:22:02;11.70;48.70
3986;DHT22;2007;48.750;9.278;2022-12-19T08:24:30;11.70;48.70
3986;DHT22;2007;48.750;9.278;2022-12-19T08:26:59;11.60;48.60
3986;DHT22;2007;48.750;9.278;2022-12-19T08:29:27;11.70;48.70
3986;DHT22;2007;48.750;9.278;2022-12-19T08:31:55;11.70;48.70
3986;DHT22;2007;48.750;9.278;2022-12-19T08:34:23;11.70;48.70
3986;DHT22;2007;48.750;9.278;2022-12-19T08:36:51;11.60;48.70
3986;DHT22;2007;48.750;9.278;2022-12-19T08:39:18;11.60;48.60
3986;DHT22;2007;48.750;9.278;2022-12-19T08:41:47;11.70;48.70
3986;DHT22;2007;48.750;9.278;2022-12-19T08:44:16;11.70;48.70
3986;DHT22;2007;48.750;9.278;2022-12-19T08:46:44;11.70;48.70
3986;DHT22;2007;48.750;9.278;2022-12-19T08:49:16;11.70;48.70
3986;DHT22;2007;48.750;9.278;2022-12-19T08:51:44;11.70;48.70
3986;DHT22;2007;48.750;9.278;2022-12-19T08:54:12;11.70;48.70
3986;DHT22;2007;48.750;9.278;2022-12-19T08:56:40;11.70;48.80
3986;DHT22;2007;48.750;9.278;2022-12-19T08:59:13;11.70;48.80
3986;DHT22;2007;48.750;9.278;2022-12-19T09:01:57;11.70;48.80
3986;DHT22;2007;48.750;9.278;2022-12-19T09:04:26;11.70;48.80
3986;DHT22;2007;48.750;9.278;2022-12-19T09:07:14;11.70;48.80
3986;DHT22;2007;48.750;9.278;2022-12-19T09:09:42;11.70;48.80
3986;DHT22;2007;48.750;9.278;2022-12-19T09:12:11;11.70;48.80
3986;DHT22;2007;48.750;9.278;2022-12-19T09:14:40;11.70;48.80
3986;DHT22;2007;48.750;9.278;2022-12-19T09:17:09;11.70;48.80
3986;DHT22;2007;48.750;9.278;2022-12-19T09:19:37;11.70;48.80
3986;DHT22;2007;48.750;9.278;2022-12-19T09:22:08;11.70;48.80
3986;DHT22;2007;48.750;9.278;2022-12-19T09:24:36;11.70;48.80
3986;DHT22;2007;48.750;9.278;2022-12-19T09:27:04;11.70;48.80
3986;DHT22;2007;48.750;9.278;2022-12-19T09:29:32;11.70;48.80
3986;DHT22;2007;48.750;9.278;2022-12-19T09:32:01;11.70;48.80
3986;DHT22;2007;48.750;9.278;2022-12-19T09:34:30;11.70;48.80
3986;DHT22;2007;48.750;9.278;2022-12-19T09:37:05;11.70;48.80
3986;DHT22;2007;48.750;9.278;2022-12-19T09:39:33;11.70;48.80
3986;DHT22;2007;48.750;9.278;2022-12-19T09:42:29;11.70;48.80
3986;DHT22;2007;48.750;9.278;2022-12-19T09:45:27;11.70;49.50
3986;DHT22;2007;48.750;9.278;2022-12-19T09:47:59;11.70;48.80
3986;DHT22;2007;48.750;9.278;2022-12-19T09:50:42;11.70;48.80
3986;DHT22;2007;48.750;9.278;2022-12-19T09:53:17;11.70;48.80
3986;DHT22;2007;48.750;9.278;2022-12-19T09:55:47;11.70;48.80
3986;DHT22;2007;48.750;9.278;2022-12-19T09:58:26;11.70;48.80
3986;DHT22;2007;48.750;9.278;2022-12-19T10:00:57;11.70;48.80
3986;DHT22;2007;48.750;9.278;2022-12-19T10:03:29;11.70;48.90
3986;DHT22;2007;48.750;9.278;2022-12-19T10:06:15;11.70;48.80
3986;DHT22;2007;48.750;9.278;2022-12-19T10:09:10;11.70;48.80
3986;DHT22;2007;48.750;9.278;2022-12-19T10:12:17;11.70;48.80
3986;DHT22;2007;48.750;9.278;2022-12-19T10:15:11;11.70;48.80
3986;DHT22;2007;48.750;9.278;2022-12-19T10:17:59;11.70;48.90
3986;DHT22;2007;48.750;9.278;2022-12-19T10:20:35;11.70;48.80
3986;DHT22;2007;48.750;9.278;2022-12-19T10:23:28;11.70;48.90
3986;DHT22;2007;48.750;9.278;2022-12-19T10:26:08;11.70;48.80
3986;DHT22;2007;48.750;9.278;2022-12-19T10:28:50;11.70;48.90
3986;DHT22;2007;48.750;9.278;2022-12-19T10:31:23;11.80;49.00
3986;DHT22;2007;48.750;9.278;2022-12-19T10:33:58;11.70;48.90
3986;DHT22;2007;48.750;9.278;2022-12-19T10:36:29;11.70;48.90
3986;DHT22;2007;48.750;9.278;2022-12-19T10:39:25;11.70;48.90
3986;DHT22;2007;48.750;9.278;2022-12-19T10:41:58;11.70;48.90
3986;DHT22;2007;48.750;9.278;2022-12-19T10:44:30;11.70;48.90
3986;DHT22;2007;48.750;9.278;2022-12-19T10:47:01;11.70;48.90
3986;DHT22;2007;48.750;9.278;2022-12-19T10:49:30;11.70;48.90
3986;DHT22;2007;48.750;9.278;2022-12-19T10:51:59;11.70;48.90
3986;DHT22;2007;48.750;9.278;2022-12-19T10:54:39;11.80;49.00
3986;DHT22;2007;48.750;9.278;2022-12-19T10:57:19;11.70;48.90
3986;DHT22;2007;48.750;9.278;2022-12-19T10:59:56;11.70;49.00
3986;DHT22;2007;48.750;9.278;2022-12-19T11:02:34;11.70;48.90
3986;DHT22;2007;48.750;9.278;2022-12-19T11:05:21;11.80;49.00
3986;DHT22;2007;48.750;9.278;2022-12-19T11:07:59;11.70;48.90
3986;DHT22;2007;48.750;9.278;2022-12-19T11:10:37;11.80;49.10
3986;DHT22;2007;48.750;9.278;2022-12-19T11:13:28;11.80;49.00
3986;DHT22;2007;48.750;9.278;2022-12-19T11:16:35;11.80;49.00
3986;DHT22;2007;48.750;9.278;2022-12-19T11:19:29;11.80;49.10
3986;DHT22;2007;48.750;9.278;2022-12-19T11:22:21;11.80;49.10
3986;DHT22;2007;48.750;9.278;2022-12-19T11:25:14;11.80;49.10
3986;DHT22;2007;48.750;9.278;2022-12-19T11:28:09;11.80;49.10
3986;DHT22;2007;48.750;9.278;2022-12-19T11:31:02;11.80;49.10
3986;DHT22;2007;48.750;9.278;2022-12-19T11:33:53;11.80;49.10
3986;DHT22;2007;48.750;9.278;2022-12-19T11:36:29;11.80;49.10
3986;DHT22;2007;48.750;9.278;2022-12-19T11:38:59;11.80;49.10
3986;DHT22;2007;48.750;9.278;2022-12-19T11:41:31;11.80;49.10
3986;DHT22;2007;48.750;9.278;2022-12-19T11:44:07;11.80;49.10
3986;DHT22;2007;48.750;9.278;2022-12-19T11:46:44;11.80;49.70
3986;DHT22;2007;48.750;9.278;2022-12-19T11:49:24;11.80;49.10
3986;DHT22;2007;48.750;9.278;2022-12-19T11:51:56;11.80;49.20
3986;DHT22;2007;48.750;9.278;2022-12-19T11:54:29;11.80;49.10
3986;DHT22;2007;48.750;9.278;2022-12-19T11:56:59;11.80;49.10
3986;DHT22;2007;48.750;9.278;2022-12-19T11:59:31;11.80;49.80
3986;DHT22;2007;48.750;9.278;2022-12-19T12:02:33;11.80;49.10
3986;DHT22;2007;48.750;9.278;2022-12-19T12:05:41;11.80;49.10
3986;DHT22;2007;48.750;9.278;2022-12-19T12:08:44;11.80;49.10
3986;DHT22;2007;48.750;9.278;2022-12-19T12:11:41;11.80;49.10
3986;DHT22;2007;48.750;9.278;2022-12-19T12:14:39;11.80;49.20
3986;DHT22;2007;48.750;9.278;2022-12-19T12:17:40;11.80;49.20
3986;DHT22;2007;48.750;9.278;2022-12-19T12:20:36;11.80;49.10
3986;DHT22;2007;48.750;9.278;2022-12-19T12:23:30;11.80;49.20
3986;DHT22;2007;48.750;9.278;2022-12-19T12:26:25;11.80;49.20
3986;DHT22;2007;48.750;9.278;2022-12-19T12:29:17;11.80;49.20
3986;DHT22;2007;48.750;9.278;2022-12-19T12:32:21;11.80;49.20
3986;DHT22;2007;48.750;9.278;2022-12-19T12:35:26;11.80;49.20
3986;DHT22;2007;48.750;9.278;2022-12-19T12:38:33;11.80;49.20
3986;DHT22;2007;48.750;9.278;2022-12-19T12:41:18;11.80;49.10
3986;DHT22;2007;48.750;9.278;2022-12-19T12:44:10;11.90;49.20
3986;DHT22;2007;48.750;9.278;2022-12-19T12:46:41;11.90;49.20
3986;DHT22;2007;48.750;9.278;2022-12-19T12:49:23;11.80;49.20
3986;DHT22;2007;48.750;9.278;2022-12-19T12:51:55;11.80;49.20
3986;DHT22;2007;48.750;9.278;2022-12-19T12:54:27;11.90;49.20
3986;DHT22;2007;48.750;9.278;2022-12-19T12:56:59;11.80;49.20
3986;DHT22;2007;48.750;9.278;2022-12-19T12:59:28;11.90;49.20
3986;DHT22;2007;48.750;9.278;2022-12-19T13:01:59;11.90;49.30
3986;DHT22;2007;48.750;9.278;2022-12-19T13:04:32;11.90;49.20
3986;DHT22;2007;48.750;9.278;2022-12-19T13:07:18;11.90;49.30
3986;DHT22;2007;48.750;9.278;2022-12-19T13:09:53;11.90;49.20
3986;DHT22;2007;48.750;9.278;2022-12-19T13:12:31;11.90;49.20
3986;DHT22;2007;48.750;9.278;2022-12-19T13:15:37;11.80;49.20
3986;DHT22;2007;48.750;9.278;2022-12-19T13:18:30;11.80;49.20
3986;DHT22;2007;48.750;9.278;2022-12-19T13:21:03;11.80;49.20
3986;DHT22;2007;48.750;9.278;2022-12-19T13:23:45;11.90;49.30
3986;DHT22;2007;48.750;9.278;2022-12-19T13:26:45;11.90;49.30
3986;DHT22;2007;48.750;9.278;2022-12-19T13:29:33;11.90;49.30
3986;DHT22;2007;48.750;9.278;2022-12-19T13:32:22;11.90;49.30
3986;DHT22;2007;48.750;9.278;2022-12-19T13:34:55;11.90;49.30
3986;DHT22;2007;48.750;9.278;2022-12-19T13:37:47;11.90;49.30
3986;DHT22;2007;48.750;9.278;2022-12-19T13:40:53;11.90;49.30
3986;DHT22;2007;48.750;9.278;2022-12-19T13:43:26;11.90;50.00
3986;DHT22;2007;48.750;9.278;2022-12-19T13:46:31;11.90;49.30
3986;DHT22;2007;48.750;9.278;2022-12-19T13:49:05;11.90;49.30
3986;DHT22;2007;48.750;9.278;2022-12-19T13:51:44;11.90;49.30
3986;DHT22;2007;48.750;9.278;2022-12-19T13:54:22;11.90;49.30
3986;DHT22;2007;48.750;9.278;2022-12-19T13:56:51;11.90;49.30
3986;DHT22;2007;48.750;9.278;2022-12-19T13:59:21;11.90;49.30
3986;DHT22;2007;48.750;9.278;2022-12-19T14:01:51;11.90;49.30
3986;DHT22;2007;48.750;9.278;2022-12-19T14:04:27;11.90;49.30
3986;DHT22;2007;48.750;9.278;2022-12-19T14:06:58;11.90;49.40
3986;DHT22;2007;48.750;9.278;2022-12-19T14:09:31;11.90;49.30
3986;DHT22;2007;48.750;9.278;2022-12-19T14:12:21;11.90;49.40
3986;DHT22;2007;48.750;9.278;2022-12-19T14:15:30;11.90;49.30
3986;DHT22;2007;48.750;9.278;2022-12-19T14:17:59;11.90;49.30
3986;DHT22;2007;48.750;9.278;2022-12-19T14:20:50;11.90;49.30
3986;DHT22;2007;48.750;9.278;2022-12-19T14:23:38;11.90;49.40
3986;DHT22;2007;48.750;9.278;2022-12-19T14:26:15;11.90;49.40
3986;DHT22;2007;48.750;9.278;2022-12-19T14:29:07;11.90;49.40
3986;DHT22;2007;48.750;9.278;2022-12-19T14:31:35;11.90;49.40
3986;DHT22;2007;48.750;9.278;2022-12-19T14:34:27;11.90;49.40
3986;DHT22;2007;48.750;9.278;2022-12-19T14:37:28;11.90;49.40
3986;DHT22;2007;48.750;9.278;2022-12-19T14:40:25;11.90;49.40
3986;DHT22;2007;48.750;9.278;2022-12-19T14:43:00;11.90;49.40
3986;DHT22;2007;48.750;9.278;2022-12-19T14:46:22;11.90;49.40
3986;DHT22;2007;48.750;9.278;2022-12-19T14:49:23;11.90;49.40
3986;DHT22;2007;48.750;9.278;2022-12-19T14:52:31;11.90;49.40
3986;DHT22;2007;48.750;9.278;2022-12-19T14:55:32;11.90;49.40
3986;DHT22;2007;48.750;9.278;2022-12-19T14:58:28;11.90;49.40
3986;DHT22;2007;48.750;9.278;2022-12-19T15:01:21;11.90;49.40
3986;DHT22;2007;48.750;9.278;2022-12-19T15:03:53;11.90;49.40
3986;DHT22;2007;48.750;9.278;2022-12-19T15:06:43;11.90;49.40
3986;DHT22;2007;48.750;9.278;2022-12-19T15:09:35;11.90;49.40
3986;DHT22;2007;48.750;9.278;2022-12-19T15:12:27;11.90;49.40
3986;DHT22;2007;48.750;9.278;2022-12-19T15:15:39;11.90;49.40
3986;DHT22;2007;48.750;9.278;2022-12-19T15:18:21;12.00;49.50
3986;DHT22;2007;48.750;9.278;2022-12-19T15:20:49;12.00;49.50
3986;DHT22;2007;48.750;9.278;2022-12-19T15:23:17;11.90;49.40
3986;DHT22;2007;48.750;9.278;2022-12-19T15:25:49;12.00;50.10
3986;DHT22;2007;48.750;9.278;2022-12-19T15:28:38;12.00;49.50
3986;DHT22;2007;48.750;9.278;2022-12-19T15:31:17;12.00;49.50
3986;DHT22;2007;48.750;9.278;2022-12-19T15:33:49;11.90;49.40
3986;DHT22;2007;48.750;9.278;2022-12-19T15:36:37;11.90;49.40
3986;DHT22;2007;48.750;9.278;2022-12-19T15:39:05;12.00;49.50
3986;DHT22;2007;48.750;9.278;2022-12-19T15:41:33;12.00;49.60
3986;DHT22;2007;48.750;9.278;2022-12-19T15:44:06;12.00;49.50
3986;DHT22;2007;48.750;9.278;2022-12-19T15:46:36;12.00;49.50
3986;DHT22;2007;48.750;9.278;2022-12-19T15:49:14;12.00;49.50
3986;DHT22;2007;48.750;9.278;2022-12-19T15:51:43;12.00;49.60
3986;DHT22;2007;48.750;9.278;2022-12-19T15:54:11;12.00;49.60
3986;DHT22;2007;48.750;9.278;2022-12-19T15:56:59;12.00;49.50
3986;DHT22;2007;48.750;9.278;2022-12-19T15:59:30;12.00;49.50
3986;DHT22;2007;48.750;9.278;2022-12-19T16:02:13;12.00;49.60
3986;DHT22;2007;48.750;9.278;2022-12-19T16:04:43;12.00;49.50
3986;DHT22;2007;48.750;9.278;2022-12-19T16:07:14;12.00;49.60
3986;DHT22;2007;48.750;9.278;2022-12-19T16:09:43;12.00;49.50
3986;DHT22;2007;48.750;9.278;2022-12-19T16:12:13;12.00;49.50
3986;DHT22;2007;48.750;9.278;2022-12-19T16:14:42;12.00;49.50
3986;DHT22;2007;48.750;9.278;2022-12-19T16:17:15;12.00;49.50
3986;DHT22;2007;48.750;9.278;2022-12-19T16:19:44;12.00;49.60
3986;DHT22;2007;48.750;9.278;2022-12-19T16:22:17;12.00;49.50
3986;DHT22;2007;48.750;9.278;2022-12-19T16:24:45;12.00;49.60
3986;DHT22;2007;48.750;9.278;2022-12-19T16:27:20;12.00;49.50
3986;DHT22;2007;48.750;9.278;2022-12-19T16:29:49;12.00;49.60
3986;DHT22;2007;48.750;9.278;2022-12-19T16:32:19;12.00;49.50
3986;DHT22;2007;48.750;9.278;2022-12-19T16:34:50;12.00;49.50
3986;DHT22;2007;48.750;9.278;2022-12-19T16:37:18;12.00;49.60
3986;DHT22;2007;48.750;9.278;2022-12-19T16:39:46;12.00;49.60
3986;DHT22;2007;48.750;9.278;2022-12-19T16:42:14;12.00;49.60
3986;DHT22;2007;48.750;9.278;2022-12-19T16:44:44;12.00;49.60
3986;DHT22;2007;48.750;9.278;2022-12-19T16:47:14;12.00;49.50
3986;DHT22;2007;48.750;9.278;2022-12-19T16:49:44;12.00;49.60
3986;DHT22;2007;48.750;9.278;2022-12-19T16:52:12;12.00;49.60
3986;DHT22;2007;48.750;9.278;2022-12-19T16:54:40;12.00;49.60
3986;DHT22;2007;48.750;9.278;2022-12-19T16:57:16;12.00;49.60